首页
METAR-TAF:

METAR-TAF

机场 :

里昂圣埃克絮佩里机场

里昂 / 圣·埃克苏佩里, 法国

纬度: 45-44N, 经度: 005-05E, 海拔: 248米

当前天气观测

该预报发布于37分钟前的10:30 UTC
风速3节,风向南转南东,在西转西南之间变化
温度 34°C
湿度 39%
气压 1021 hPa
能见度10公里或以上
1500米以下无云,无积雨云

METAR: LFLL 271030Z 16003KT 080V250 CAVOK 34/18 Q1021 NOSIG

时间: 13:07 (11:07 UTC)

预报

该预报发布于6小时和7分钟前的05:00 UTC
预报有效从27日的 06点(UTC)到 28日的 12点(UTC)
风速6节,风向南转南东
能见度10公里或以上
1500米以下无云,无积雨云
成为
从 27日的 13点(UTC)到 27日的 16点(UTC)
风速8节,风向

TAF: LFLL 270500Z 2706/2812 16006KT CAVOK BECMG 2713/2716 36008KT

超过4000个机场的气象观测和天气预报(METAR&TAF报告)。

可查询的气象台以黄色和红色小点在地图上表示。

将鼠标移到小点上方,可查看气象台名称。

然后点击查看天气观测和预报。

如需切换地图:点击带黑十字的绿色按钮放大地图;点击带横线的绿色按钮缩小地图;或者点击绿色箭头查看邻近地区的地图。


METAR-TAF: